createdAt,value
2022-09-05T00:01:43.249Z,39.07
2022-09-05T00:04:24.259Z,39.33
2022-09-05T00:07:11.504Z,39.58
2022-09-05T00:10:05.731Z,39.49
2022-09-05T00:12:33.060Z,39.87
2022-09-05T00:15:15.831Z,40.47
2022-09-05T00:19:55.986Z,41.23
2022-09-05T00:24:27.137Z,40.83
2022-09-05T00:24:28.563Z,40.85
2022-09-05T00:27:09.191Z,40.27
2022-09-05T00:31:51.629Z,40.36
2022-09-05T00:32:56.084Z,40.20
2022-09-05T00:35:38.634Z,40.27
2022-09-05T00:38:14.260Z,40.01
2022-09-05T00:40:50.572Z,39.81
2022-09-05T00:43:19.572Z,39.79
2022-09-05T00:45:47.597Z,39.53
2022-09-05T00:48:17.626Z,39.49
2022-09-05T00:50:45.047Z,39.26
2022-09-05T00:53:15.252Z,39.71
2022-09-05T00:55:48.663Z,40.18
2022-09-05T00:58:35.856Z,40.27
2022-09-05T01:01:20.556Z,40.00
2022-09-05T01:03:53.506Z,40.10
2022-09-05T01:06:29.441Z,39.69
2022-09-05T01:09:08.217Z,39.63
2022-09-05T01:11:38.704Z,39.69
2022-09-05T01:14:12.733Z,39.73
2022-09-05T01:16:58.857Z,39.87
2022-09-05T01:19:35.156Z,39.89
2022-09-05T01:22:08.241Z,39.98
2022-09-05T01:24:45.106Z,40.07
2022-09-05T01:27:40.961Z,40.01
2022-09-05T01:30:22.649Z,39.75
2022-09-05T01:33:06.146Z,39.98
2022-09-05T01:35:33.782Z,39.94
2022-09-05T01:38:19.641Z,40.11
2022-09-05T01:40:59.024Z,39.58
2022-09-05T01:43:57.018Z,39.82
2022-09-05T01:46:43.449Z,39.76
2022-09-05T01:49:25.137Z,39.68
2022-09-05T01:52:08.043Z,39.46
2022-09-05T01:54:54.251Z,39.63
2022-09-05T01:57:29.371Z,39.63
2022-09-05T02:00:17.769Z,39.60
2022-09-05T02:02:54.128Z,39.65
2022-09-05T02:05:47.846Z,39.49
2022-09-05T02:08:14.675Z,39.32
2022-09-05T02:10:44.883Z,38.91
2022-09-05T02:13:24.485Z,38.97
2022-09-05T02:15:59.845Z,39.21
2022-09-05T02:18:29.759Z,39.23
2022-09-05T02:20:57.521Z,39.39
2022-09-05T02:23:41.981Z,39.48
2022-09-05T02:26:15.507Z,39.52
2022-09-05T02:28:48.754Z,39.53
2022-09-05T02:31:27.501Z,39.62
2022-09-05T02:34:14.924Z,39.39
2022-09-05T02:36:45.971Z,39.39
2022-09-05T02:44:39.479Z,39.58
2022-09-05T02:45:13.045Z,39.91
2022-09-05T02:45:25.750Z,40.06
2022-09-05T02:47:57.234Z,39.45
2022-09-05T02:57:23.937Z,39.61
2022-09-05T02:57:36.695Z,39.37
2022-09-05T02:57:40.615Z,39.93
2022-09-05T02:59:35.957Z,38.77
2022-09-05T03:02:35.897Z,38.66
2022-09-05T03:05:09.161Z,38.91
2022-09-05T03:07:54.794Z,38.81
2022-09-05T03:10:53.573Z,39.02
2022-09-05T03:13:27.472Z,39.04
2022-09-05T03:15:54.833Z,39.15
2022-09-05T03:18:41.185Z,39.49
2022-09-05T03:21:24.244Z,39.59
2022-09-05T03:23:54.917Z,39.43
2022-09-05T03:26:42.698Z,39.20
2022-09-05T03:29:18.240Z,39.16
2022-09-05T03:31:51.733Z,38.95
2022-09-05T03:34:25.121Z,38.90
2022-09-05T03:37:06.996Z,38.86
2022-09-05T03:39:43.449Z,39.01
2022-09-05T03:42:19.084Z,39.46
2022-09-05T03:44:49.853Z,39.60
2022-09-05T03:47:20.353Z,39.83
2022-09-05T03:55:41.139Z,39.57
2022-09-05T03:57:27.285Z,39.19
2022-09-05T03:57:27.547Z,39.15
2022-09-05T03:59:01.949Z,39.40
2022-09-05T04:03:10.593Z,39.49
2022-09-05T04:08:10.000Z,39.71
2022-09-05T04:08:16.375Z,39.65
2022-09-05T04:10:04.953Z,39.44
2022-09-05T04:12:32.261Z,39.08
2022-09-05T04:15:17.730Z,38.93
2022-09-05T04:17:49.099Z,39.07
2022-09-05T04:20:42.378Z,38.98
2022-09-05T04:23:13.919Z,39.09
2022-09-05T04:26:11.237Z,38.93
2022-09-05T04:28:48.700Z,39.02
2022-09-05T04:31:20.686Z,39.09
2022-09-05T04:33:57.058Z,39.13
2022-09-05T04:36:26.585Z,39.06
2022-09-05T04:39:12.914Z,39.05
2022-09-05T04:41:41.022Z,38.97
2022-09-05T04:44:10.792Z,38.74
2022-09-05T04:46:52.084Z,38.42
2022-09-05T04:49:33.851Z,37.79
2022-09-05T04:52:10.168Z,37.30
2022-09-05T04:54:46.139Z,36.67
2022-09-05T04:57:15.902Z,36.59
2022-09-05T05:05:09.000Z,36.66
2022-09-05T05:06:13.107Z,35.94
2022-09-05T05:06:17.936Z,36.50
2022-09-05T05:08:14.359Z,36.23
2022-09-05T05:17:18.022Z,35.65
2022-09-05T05:18:11.489Z,36.37
2022-09-05T05:18:14.830Z,35.21
2022-09-05T05:19:29.826Z,36.00
2022-09-05T05:21:58.224Z,36.02
2022-09-05T05:24:27.757Z,36.00
2022-09-05T05:26:57.468Z,35.84
2022-09-05T05:29:27.398Z,36.32
2022-09-05T05:31:55.565Z,36.44
2022-09-05T05:34:25.136Z,35.42
2022-09-05T05:37:18.923Z,37.09
2022-09-05T05:39:48.325Z,35.93
2022-09-05T05:42:20.320Z,36.37
2022-09-05T05:44:49.791Z,36.97
2022-09-05T05:47:31.380Z,36.25
2022-09-05T05:50:11.498Z,36.53
2022-09-05T05:52:39.239Z,35.34
2022-09-05T05:55:50.573Z,36.27
2022-09-05T05:58:14.161Z,36.21
2022-09-05T06:00:51.943Z,37.83
2022-09-05T06:03:27.584Z,38.75
2022-09-05T06:05:57.843Z,36.86
2022-09-05T06:14:52.689Z,37.13
2022-09-05T06:15:01.625Z,36.54
2022-09-05T06:15:09.397Z,36.61
2022-09-05T06:17:46.016Z,35.80
2022-09-05T06:22:04.440Z,37.67
2022-09-05T06:23:39.163Z,40.51
2022-09-05T06:26:12.889Z,40.38
2022-09-05T06:29:03.293Z,38.48
2022-09-05T06:31:46.064Z,39.55
2022-09-05T06:34:33.384Z,38.99
2022-09-05T06:37:22.351Z,40.64
2022-09-05T06:40:01.008Z,39.91
2022-09-05T06:42:42.978Z,41.78
2022-09-05T06:45:26.922Z,40.28
2022-09-05T06:47:57.134Z,39.05
2022-09-05T06:50:27.907Z,39.87
2022-09-05T06:52:55.517Z,38.81
2022-09-05T06:55:24.880Z,38.51
2022-09-05T06:58:10.999Z,39.35
2022-09-05T07:00:39.012Z,39.28
2022-09-05T07:03:22.968Z,39.74
2022-09-05T07:05:55.775Z,38.25
2022-09-05T07:08:44.394Z,41.14
2022-09-05T07:11:16.961Z,40.70
2022-09-05T07:13:48.354Z,40.52
2022-09-05T07:16:17.426Z,39.93
2022-09-05T07:19:04.444Z,38.00
2022-09-05T07:21:40.449Z,37.44
2022-09-05T07:24:11.757Z,38.30
2022-09-05T07:26:54.331Z,40.25
2022-09-05T07:29:35.165Z,37.81
2022-09-05T07:32:03.498Z,36.64
2022-09-05T07:34:31.515Z,38.08
2022-09-05T07:37:15.058Z,37.31
2022-09-05T07:39:57.529Z,36.34
2022-09-05T07:42:38.405Z,35.29
2022-09-05T07:45:08.530Z,35.83
2022-09-05T07:47:36.596Z,35.96
2022-09-05T07:54:43.927Z,35.86
2022-09-05T07:56:51.465Z,34.75
2022-09-05T07:57:03.848Z,34.14
2022-09-05T07:58:41.797Z,35.41
2022-09-05T08:01:10.058Z,34.38
2022-09-05T08:03:37.535Z,33.80
2022-09-05T08:06:05.711Z,32.52
2022-09-05T08:09:00.428Z,32.94
2022-09-05T08:11:36.219Z,32.79
2022-09-05T08:14:44.352Z,33.21
2022-09-05T08:16:55.751Z,32.02
2022-09-05T08:19:38.276Z,33.76
2022-09-05T08:22:06.100Z,34.69
2022-09-05T08:24:37.451Z,34.12
2022-09-05T08:27:16.692Z,33.49
2022-09-05T08:30:26.683Z,31.91
2022-09-05T08:32:53.654Z,32.55
2022-09-05T08:35:28.136Z,33.11
2022-09-05T08:37:55.451Z,30.81
2022-09-05T08:40:27.575Z,32.08
2022-09-05T08:44:14.965Z,30.88
2022-09-05T08:46:42.011Z,31.19
2022-09-05T08:48:39.913Z,31.79
2022-09-05T08:51:08.830Z,30.71
2022-09-05T08:53:46.472Z,32.34
2022-09-05T08:56:24.083Z,31.04
2022-09-05T08:59:27.913Z,31.61
2022-09-05T09:02:13.780Z,32.38
2022-09-05T09:05:01.194Z,32.91
2022-09-05T09:07:50.751Z,31.87
2022-09-05T09:10:31.025Z,32.41
2022-09-05T09:13:06.418Z,30.99
2022-09-05T09:15:37.951Z,32.24
2022-09-05T09:18:10.199Z,31.87
2022-09-05T09:20:45.328Z,31.84
2022-09-05T09:23:32.420Z,33.09
2022-09-05T09:26:03.287Z,31.80
2022-09-05T09:28:50.012Z,31.88
2022-09-05T09:31:23.534Z,32.25
2022-09-05T09:33:59.916Z,32.01
2022-09-05T09:36:42.743Z,31.79
2022-09-05T09:39:37.835Z,32.20
2022-09-05T09:42:32.567Z,32.46
2022-09-05T09:45:22.705Z,33.35
2022-09-05T09:48:09.952Z,32.93
2022-09-05T09:50:37.330Z,31.41
2022-09-05T09:53:16.971Z,32.07
2022-09-05T09:56:06.690Z,32.47
2022-09-05T09:58:47.055Z,31.48
2022-09-05T10:01:35.175Z,31.52
2022-09-05T10:10:36.482Z,31.13
2022-09-05T10:10:47.488Z,31.28
2022-09-05T10:10:53.559Z,31.14
2022-09-05T10:13:08.570Z,33.12
2022-09-05T10:15:55.596Z,32.95
2022-09-05T10:18:24.159Z,32.58
2022-09-05T10:21:15.481Z,30.73
2022-09-05T10:23:52.293Z,30.92
2022-09-05T10:26:31.701Z,31.07
2022-09-05T10:29:10.173Z,31.27
2022-09-05T10:34:50.656Z,32.34
2022-09-05T10:35:17.845Z,31.54
2022-09-05T10:37:56.779Z,30.15
2022-09-05T10:40:25.627Z,30.89
2022-09-05T10:43:00.698Z,30.98
2022-09-05T10:45:45.530Z,29.85
2022-09-05T10:48:20.240Z,29.98
2022-09-05T10:50:54.219Z,31.70
2022-09-05T10:53:27.074Z,32.49
2022-09-05T10:56:03.936Z,31.09
2022-09-05T11:00:56.431Z,30.39
2022-09-05T11:02:28.439Z,30.92
2022-09-05T11:04:21.387Z,30.75
2022-09-05T11:06:49.933Z,31.05
2022-09-05T11:09:37.640Z,30.36
2022-09-05T11:12:04.787Z,31.63
2022-09-05T11:14:38.669Z,30.63
2022-09-05T11:17:11.414Z,30.19
2022-09-05T11:19:43.116Z,30.15
2022-09-05T11:22:22.941Z,27.93
2022-09-05T11:24:59.011Z,28.37
2022-09-05T11:27:36.431Z,29.14
2022-09-05T11:30:08.327Z,29.84
2022-09-05T11:36:41.540Z,28.79
2022-09-05T11:39:55.488Z,28.82
2022-09-05T11:39:55.598Z,31.15
2022-09-05T11:41:15.538Z,29.40
2022-09-05T11:43:52.357Z,29.52
2022-09-05T11:46:37.203Z,27.90
2022-09-05T11:49:07.514Z,28.96
2022-09-05T11:51:53.499Z,28.25
2022-09-05T11:54:35.701Z,28.69
2022-09-05T11:57:33.261Z,29.12
2022-09-05T12:00:30.817Z,28.87
2022-09-05T12:03:01.207Z,29.39
2022-09-05T12:05:49.648Z,28.50
2022-09-05T12:08:28.741Z,27.76
2022-09-05T12:10:59.318Z,27.57
2022-09-05T12:13:40.546Z,28.02
2022-09-05T12:16:27.979Z,27.31
2022-09-05T12:18:56.645Z,27.47
2022-09-05T12:21:38.955Z,28.79
2022-09-05T12:25:25.455Z,30.12
2022-09-05T12:27:38.661Z,29.30
2022-09-05T12:29:59.501Z,29.24
2022-09-05T12:33:32.728Z,28.71
2022-09-05T12:36:10.928Z,28.37
2022-09-05T12:40:28.614Z,29.28
2022-09-05T12:41:44.543Z,28.62
2022-09-05T12:44:38.394Z,29.36
2022-09-05T12:47:16.724Z,28.14
2022-09-05T12:50:02.403Z,30.18
2022-09-05T12:52:32.413Z,28.41
2022-09-05T12:55:06.123Z,29.77
2022-09-05T13:02:57.167Z,29.08
2022-09-05T13:02:58.683Z,28.71
2022-09-05T13:03:28.879Z,27.62
2022-09-05T13:06:09.359Z,28.11
2022-09-05T13:08:44.015Z,27.92
2022-09-05T13:14:47.918Z,29.79
2022-09-05T13:14:55.455Z,30.77
2022-09-05T13:16:55.005Z,27.50
2022-09-05T13:19:25.447Z,28.49
2022-09-05T13:21:52.761Z,29.41
2022-09-05T13:24:27.808Z,30.66
2022-09-05T13:27:07.673Z,30.22
2022-09-05T13:29:52.541Z,28.99
2022-09-05T13:37:59.735Z,29.40
2022-09-05T13:38:03.700Z,29.14
2022-09-05T13:41:03.619Z,30.46
2022-09-05T13:43:38.209Z,29.30
2022-09-05T13:46:10.903Z,28.64
2022-09-05T13:51:28.999Z,28.30
2022-09-05T13:54:06.357Z,28.69
2022-09-05T13:56:33.536Z,27.58
2022-09-05T13:59:03.483Z,27.48
2022-09-05T14:02:26.288Z,27.75
2022-09-05T14:07:49.745Z,26.31
2022-09-05T14:10:23.346Z,27.16
2022-09-05T14:13:14.356Z,25.96
2022-09-05T14:15:43.530Z,25.75
2022-09-05T14:18:24.057Z,27.25
2022-09-05T14:21:17.318Z,28.26
2022-09-05T14:24:03.421Z,27.59
2022-09-05T14:26:48.066Z,28.32
2022-09-05T14:29:16.621Z,28.42
2022-09-05T14:37:39.113Z,28.03
2022-09-05T14:37:41.745Z,29.33
2022-09-05T14:38:15.852Z,30.14
2022-09-05T14:41:06.722Z,28.93
2022-09-05T14:43:56.734Z,28.14
2022-09-05T14:46:50.590Z,27.90
2022-09-05T14:49:34.557Z,28.56
2022-09-05T14:52:15.178Z,27.88
2022-09-05T15:02:42.923Z,27.62
2022-09-05T15:02:45.356Z,25.99
2022-09-05T15:03:15.339Z,28.57
2022-09-05T15:05:46.580Z,28.62
2022-09-05T15:11:04.873Z,28.34
2022-09-05T15:12:21.669Z,28.25
2022-09-05T15:13:58.160Z,27.87
2022-09-05T15:16:25.734Z,28.06
2022-09-05T15:18:53.415Z,26.99
2022-09-05T15:21:30.616Z,27.04
2022-09-05T15:24:01.824Z,28.03
2022-09-05T15:26:31.172Z,27.47
2022-09-05T15:29:13.662Z,26.75
2022-09-05T15:31:41.985Z,27.32
2022-09-05T15:34:20.106Z,26.87
2022-09-05T15:36:47.778Z,26.82
2022-09-05T15:39:20.993Z,27.62
2022-09-05T15:41:48.497Z,28.27
2022-09-05T15:44:19.509Z,28.88
2022-09-05T15:46:49.208Z,28.53
2022-09-05T15:49:28.149Z,28.06
2022-09-05T15:51:57.022Z,29.26
2022-09-05T15:54:38.742Z,28.31
2022-09-05T15:57:08.962Z,28.89
2022-09-05T15:59:49.219Z,28.71
2022-09-05T16:02:23.557Z,28.65
2022-09-05T16:10:28.265Z,28.97
2022-09-05T16:10:36.098Z,29.12
2022-09-05T16:13:51.915Z,29.38
2022-09-05T16:23:18.488Z,29.87
2022-09-05T16:23:23.409Z,29.48
2022-09-05T16:23:27.397Z,29.65
2022-09-05T16:24:59.865Z,29.36
2022-09-05T16:27:36.096Z,29.35
2022-09-05T16:30:15.452Z,29.72
2022-09-05T16:32:46.554Z,29.84
2022-09-05T16:35:18.665Z,29.07
2022-09-05T16:37:53.045Z,29.23
2022-09-05T16:40:27.650Z,29.22
2022-09-05T16:43:00.204Z,29.57
2022-09-05T16:45:30.662Z,29.15
2022-09-05T16:48:01.242Z,29.14
2022-09-05T16:50:40.663Z,29.61
2022-09-05T16:53:30.515Z,29.42
2022-09-05T16:56:07.609Z,29.33
2022-09-05T16:58:39.261Z,29.36
2022-09-05T17:01:12.714Z,29.47
2022-09-05T17:03:53.001Z,29.60
2022-09-05T17:06:26.358Z,29.62
2022-09-05T17:08:56.812Z,29.74
2022-09-05T17:12:00.035Z,29.77
2022-09-05T17:14:31.230Z,29.84
2022-09-05T17:16:59.276Z,29.97
2022-09-05T17:19:27.386Z,29.90
2022-09-05T17:25:11.083Z,29.76
2022-09-05T17:29:24.595Z,30.04
2022-09-05T17:29:49.177Z,29.91
2022-09-05T17:33:44.615Z,30.59
2022-09-05T17:36:18.497Z,30.46
2022-09-05T17:39:05.248Z,30.48
2022-09-05T17:41:35.248Z,30.44
2022-09-05T17:44:21.557Z,30.48
2022-09-05T17:46:57.587Z,30.49
2022-09-05T17:49:40.462Z,30.57
2022-09-05T17:52:18.139Z,30.52
2022-09-05T17:54:50.141Z,30.69
2022-09-05T17:57:26.551Z,30.51
2022-09-05T17:59:54.994Z,30.75
2022-09-05T18:02:22.187Z,30.90
2022-09-05T18:04:53.557Z,31.06
2022-09-05T18:07:26.899Z,31.07
2022-09-05T18:10:12.688Z,31.11
2022-09-05T18:15:32.635Z,30.94
2022-09-05T18:18:01.075Z,30.92
2022-09-05T18:20:33.524Z,30.74
2022-09-05T18:26:09.478Z,31.06
2022-09-05T18:28:39.923Z,31.37
2022-09-05T18:31:41.816Z,31.33
2022-09-05T18:34:12.875Z,31.39
2022-09-05T18:36:41.498Z,31.15
2022-09-05T18:39:27.996Z,31.16
2022-09-05T18:42:33.824Z,31.26
2022-09-05T18:45:00.051Z,31.45
2022-09-05T18:47:32.986Z,31.50
2022-09-05T18:50:26.297Z,31.50
2022-09-05T18:52:49.578Z,31.34
2022-09-05T18:56:09.773Z,31.38
2022-09-05T18:58:11.933Z,31.23
2022-09-05T19:00:41.701Z,31.19
2022-09-05T19:03:12.807Z,31.26
2022-09-05T19:05:56.439Z,31.33
2022-09-05T19:08:47.096Z,31.38
2022-09-05T19:11:27.856Z,31.88
2022-09-05T19:14:12.840Z,31.67
2022-09-05T19:16:48.065Z,31.78
2022-09-05T19:19:18.582Z,31.98
2022-09-05T19:22:48.587Z,31.89
2022-09-05T19:24:50.221Z,31.83
2022-09-05T19:28:49.952Z,32.31
2022-09-05T19:36:56.243Z,32.88
2022-09-05T19:36:56.313Z,32.40
2022-09-05T19:37:08.705Z,33.11
2022-09-05T19:38:34.196Z,33.38
2022-09-05T19:47:34.370Z,33.53
2022-09-05T19:47:45.141Z,33.68
2022-09-05T19:47:48.848Z,33.71
2022-09-05T19:49:55.455Z,33.79
2022-09-05T19:52:23.199Z,34.03
2022-09-05T19:54:51.256Z,34.06
2022-09-05T19:57:22.530Z,34.17
2022-09-05T19:59:54.183Z,34.30
2022-09-05T20:02:25.380Z,34.24
2022-09-05T20:04:53.703Z,34.19
2022-09-05T20:07:21.784Z,34.34
2022-09-05T20:09:49.674Z,34.26
2022-09-05T20:12:24.322Z,34.33
2022-09-05T20:14:51.811Z,34.27
2022-09-05T20:17:21.426Z,34.18
2022-09-05T20:19:48.728Z,34.13
2022-09-05T20:22:47.576Z,34.08
2022-09-05T20:25:19.790Z,34.32
2022-09-05T20:28:00.575Z,34.20
2022-09-05T20:30:40.581Z,34.06
2022-09-05T20:33:14.883Z,34.34
2022-09-05T20:38:54.628Z,34.58
2022-09-05T20:43:16.584Z,34.57
2022-09-05T20:43:17.116Z,34.47
2022-09-05T20:44:17.203Z,34.68
2022-09-05T20:52:04.270Z,34.66
2022-09-05T20:54:15.345Z,34.87
2022-09-05T20:54:25.428Z,35.97
2022-09-05T20:55:38.305Z,36.11
2022-09-05T20:58:15.924Z,35.86
2022-09-05T21:01:19.628Z,35.41
2022-09-05T21:03:31.883Z,35.15
2022-09-05T21:06:12.746Z,35.16
2022-09-05T21:08:40.754Z,35.27
2022-09-05T21:11:08.037Z,35.37
2022-09-05T21:13:35.866Z,35.57
2022-09-05T21:16:14.645Z,35.37
2022-09-05T21:18:42.510Z,35.15
2022-09-05T21:21:29.224Z,34.75
2022-09-05T21:24:16.410Z,34.75
2022-09-05T21:26:49.078Z,34.59
2022-09-05T21:29:17.535Z,35.33
2022-09-05T21:31:44.856Z,37.20
2022-09-05T21:34:14.148Z,37.53
2022-09-05T21:36:41.878Z,37.43
2022-09-05T21:39:09.040Z,36.52
2022-09-05T21:41:36.765Z,36.68
2022-09-05T21:47:37.539Z,35.70
2022-09-05T21:47:48.870Z,35.60
2022-09-05T21:49:43.065Z,35.29
2022-09-05T21:52:13.012Z,34.83
2022-09-05T21:59:18.012Z,34.37
2022-09-05T21:59:33.533Z,34.44
2022-09-05T22:00:20.311Z,36.12
2022-09-05T22:02:49.549Z,37.04
2022-09-05T22:05:19.405Z,36.23
2022-09-05T22:07:48.593Z,35.74
2022-09-05T22:10:16.016Z,35.23
2022-09-05T22:12:43.749Z,35.25
2022-09-05T22:15:28.300Z,34.80
2022-09-05T22:18:06.350Z,34.91
2022-09-05T22:20:44.898Z,34.53
2022-09-05T22:23:12.746Z,34.87
2022-09-05T22:25:40.537Z,34.89
2022-09-05T22:28:07.616Z,34.23
2022-09-05T22:30:38.730Z,35.23
2022-09-05T22:33:06.085Z,34.82
2022-09-05T22:35:33.895Z,35.29
2022-09-05T22:38:01.913Z,34.93
2022-09-05T22:40:29.773Z,34.52
2022-09-05T22:42:57.569Z,34.87
2022-09-05T22:45:25.131Z,34.59
2022-09-05T22:47:52.535Z,34.56
2022-09-05T22:50:19.710Z,35.05
2022-09-05T22:52:47.134Z,35.07
2022-09-05T22:55:14.325Z,34.38
2022-09-05T22:57:41.689Z,34.40
2022-09-05T23:00:09.501Z,34.57
2022-09-05T23:02:36.734Z,34.63
2022-09-05T23:05:04.612Z,34.12
2022-09-05T23:07:32.542Z,33.90
2022-09-05T23:09:59.710Z,33.88
2022-09-05T23:12:26.916Z,34.25
2022-09-05T23:14:54.359Z,34.21
2022-09-05T23:17:21.524Z,34.34
2022-09-05T23:19:48.678Z,34.44
2022-09-05T23:22:16.621Z,34.66
2022-09-05T23:24:43.780Z,34.44
2022-09-05T23:27:10.945Z,34.62
2022-09-05T23:29:38.389Z,34.19
2022-09-05T23:32:05.546Z,34.08
2022-09-05T23:34:35.557Z,34.18
2022-09-05T23:37:03.008Z,34.89
2022-09-05T23:39:30.214Z,34.65
2022-09-05T23:41:57.419Z,34.25
2022-09-05T23:44:25.825Z,34.63
2022-09-05T23:46:52.964Z,34.31
2022-09-05T23:49:20.135Z,35.25
2022-09-05T23:51:47.567Z,35.20
2022-09-05T23:54:14.736Z,35.12
2022-09-05T23:56:42.191Z,35.01
2022-09-05T23:59:11.642Z,35.03
